sensor_id;sensor_type;location;lat;lon;timestamp;P1;durP1;ratioP1;P2;durP2;ratioP2
5559;SDS011;2803;47.916;8.074;2022-08-19T00:01:43;16.83;;;11.03;;
5559;SDS011;2803;47.916;8.074;2022-08-19T00:04:12;19.47;;;11.50;;
5559;SDS011;2803;47.916;8.074;2022-08-19T00:06:41;16.03;;;10.80;;
5559;SDS011;2803;47.916;8.074;2022-08-19T00:09:10;15.57;;;11.07;;
5559;SDS011;2803;47.916;8.074;2022-08-19T00:11:39;13.87;;;10.57;;
5559;SDS011;2803;47.916;8.074;2022-08-19T00:14:08;13.43;;;10.47;;
5559;SDS011;2803;47.916;8.074;2022-08-19T00:16:37;16.20;;;12.47;;
5559;SDS011;2803;47.916;8.074;2022-08-19T00:19:04;18.60;;;11.67;;
5559;SDS011;2803;47.916;8.074;2022-08-19T00:21:31;16.87;;;10.77;;
5559;SDS011;2803;47.916;8.074;2022-08-19T00:24:01;14.43;;;12.00;;
5559;SDS011;2803;47.916;8.074;2022-08-19T00:26:28;13.57;;;11.00;;
5559;SDS011;2803;47.916;8.074;2022-08-19T00:28:55;13.23;;;10.70;;
5559;SDS011;2803;47.916;8.074;2022-08-19T00:31:23;21.60;;;12.87;;
5559;SDS011;2803;47.916;8.074;2022-08-19T00:33:50;17.40;;;12.40;;
5559;SDS011;2803;47.916;8.074;2022-08-19T00:36:17;16.73;;;12.47;;
5559;SDS011;2803;47.916;8.074;2022-08-19T00:38:43;15.60;;;11.77;;
5559;SDS011;2803;47.916;8.074;2022-08-19T00:41:12;14.30;;;12.10;;
5559;SDS011;2803;47.916;8.074;2022-08-19T00:43:39;16.53;;;11.20;;
5559;SDS011;2803;47.916;8.074;2022-08-19T00:46:06;16.33;;;11.00;;
5559;SDS011;2803;47.916;8.074;2022-08-19T00:48:34;18.43;;;12.10;;
5559;SDS011;2803;47.916;8.074;2022-08-19T00:51:02;13.87;;;11.10;;
5559;SDS011;2803;47.916;8.074;2022-08-19T00:53:30;14.27;;;11.03;;
5559;SDS011;2803;47.916;8.074;2022-08-19T00:55:59;17.10;;;12.83;;
5559;SDS011;2803;47.916;8.074;2022-08-19T00:58:30;17.73;;;13.10;;
5559;SDS011;2803;47.916;8.074;2022-08-19T01:00:58;18.27;;;12.23;;
5559;SDS011;2803;47.916;8.074;2022-08-19T01:03:25;22.30;;;12.53;;
5559;SDS011;2803;47.916;8.074;2022-08-19T01:05:53;19.30;;;13.20;;
5559;SDS011;2803;47.916;8.074;2022-08-19T01:08:21;18.87;;;14.77;;
5559;SDS011;2803;47.916;8.074;2022-08-19T01:10:50;22.23;;;15.00;;
5559;SDS011;2803;47.916;8.074;2022-08-19T01:13:19;19.40;;;14.23;;
5559;SDS011;2803;47.916;8.074;2022-08-19T01:15:48;19.73;;;13.37;;
5559;SDS011;2803;47.916;8.074;2022-08-19T01:18:18;21.57;;;15.17;;
5559;SDS011;2803;47.916;8.074;2022-08-19T01:20:46;26.90;;;15.97;;
5559;SDS011;2803;47.916;8.074;2022-08-19T01:23:14;18.63;;;14.47;;
5559;SDS011;2803;47.916;8.074;2022-08-19T01:25:43;18.37;;;14.40;;
5559;SDS011;2803;47.916;8.074;2022-08-19T01:28:16;21.10;;;14.20;;
5559;SDS011;2803;47.916;8.074;2022-08-19T01:30:45;19.80;;;14.17;;
5559;SDS011;2803;47.916;8.074;2022-08-19T01:33:12;17.53;;;12.67;;
5559;SDS011;2803;47.916;8.074;2022-08-19T01:35:40;19.77;;;13.73;;
5559;SDS011;2803;47.916;8.074;2022-08-19T01:38:09;19.53;;;13.80;;
5559;SDS011;2803;47.916;8.074;2022-08-19T01:40:46;19.17;;;15.53;;
5559;SDS011;2803;47.916;8.074;2022-08-19T01:43:16;24.83;;;14.90;;
5559;SDS011;2803;47.916;8.074;2022-08-19T01:45:44;20.40;;;15.87;;
5559;SDS011;2803;47.916;8.074;2022-08-19T01:48:11;24.73;;;15.93;;
5559;SDS011;2803;47.916;8.074;2022-08-19T01:50:39;26.90;;;16.47;;
5559;SDS011;2803;47.916;8.074;2022-08-19T01:53:06;33.07;;;16.50;;
5559;SDS011;2803;47.916;8.074;2022-08-19T01:55:36;22.13;;;15.70;;
5559;SDS011;2803;47.916;8.074;2022-08-19T01:58:05;25.50;;;16.70;;
5559;SDS011;2803;47.916;8.074;2022-08-19T02:00:35;24.53;;;16.90;;
5559;SDS011;2803;47.916;8.074;2022-08-19T02:03:02;22.40;;;15.27;;
5559;SDS011;2803;47.916;8.074;2022-08-19T02:05:29;25.07;;;16.57;;
5559;SDS011;2803;47.916;8.074;2022-08-19T02:07:56;19.80;;;15.53;;
5559;SDS011;2803;47.916;8.074;2022-08-19T02:10:24;24.20;;;18.07;;
5559;SDS011;2803;47.916;8.074;2022-08-19T02:12:51;21.73;;;14.87;;
5559;SDS011;2803;47.916;8.074;2022-08-19T02:15:19;20.70;;;15.27;;
5559;SDS011;2803;47.916;8.074;2022-08-19T02:17:47;24.00;;;18.13;;
5559;SDS011;2803;47.916;8.074;2022-08-19T02:20:14;21.67;;;16.10;;
5559;SDS011;2803;47.916;8.074;2022-08-19T02:22:42;24.60;;;17.87;;
5559;SDS011;2803;47.916;8.074;2022-08-19T02:25:09;26.40;;;17.40;;
5559;SDS011;2803;47.916;8.074;2022-08-19T02:27:36;30.80;;;19.70;;
5559;SDS011;2803;47.916;8.074;2022-08-19T02:30:04;29.30;;;19.30;;
5559;SDS011;2803;47.916;8.074;2022-08-19T02:32:33;27.13;;;17.73;;
5559;SDS011;2803;47.916;8.074;2022-08-19T02:34:59;28.90;;;19.43;;
5559;SDS011;2803;47.916;8.074;2022-08-19T02:37:26;28.13;;;19.90;;
5559;SDS011;2803;47.916;8.074;2022-08-19T02:40:07;29.53;;;20.10;;
5559;SDS011;2803;47.916;8.074;2022-08-19T02:42:34;29.37;;;18.80;;
5559;SDS011;2803;47.916;8.074;2022-08-19T02:45:01;29.03;;;20.40;;
5559;SDS011;2803;47.916;8.074;2022-08-19T02:47:28;28.73;;;20.70;;
5559;SDS011;2803;47.916;8.074;2022-08-19T02:49:55;34.53;;;23.17;;
5559;SDS011;2803;47.916;8.074;2022-08-19T02:52:22;30.43;;;20.73;;
5559;SDS011;2803;47.916;8.074;2022-08-19T02:54:51;34.97;;;23.80;;
5559;SDS011;2803;47.916;8.074;2022-08-19T02:57:17;38.70;;;23.07;;
5559;SDS011;2803;47.916;8.074;2022-08-19T02:59:44;35.10;;;22.03;;
5559;SDS011;2803;47.916;8.074;2022-08-19T03:02:10;28.67;;;20.80;;
5559;SDS011;2803;47.916;8.074;2022-08-19T03:04:37;29.90;;;21.47;;
5559;SDS011;2803;47.916;8.074;2022-08-19T03:07:05;34.37;;;23.90;;
5559;SDS011;2803;47.916;8.074;2022-08-19T03:09:31;36.13;;;24.53;;
5559;SDS011;2803;47.916;8.074;2022-08-19T03:11:58;35.37;;;24.10;;
5559;SDS011;2803;47.916;8.074;2022-08-19T03:14:25;34.50;;;24.00;;
5559;SDS011;2803;47.916;8.074;2022-08-19T03:16:52;35.43;;;23.67;;
5559;SDS011;2803;47.916;8.074;2022-08-19T03:19:19;36.63;;;23.10;;
5559;SDS011;2803;47.916;8.074;2022-08-19T03:21:47;33.67;;;21.70;;
5559;SDS011;2803;47.916;8.074;2022-08-19T03:24:15;31.00;;;21.60;;
5559;SDS011;2803;47.916;8.074;2022-08-19T03:26:44;29.83;;;20.00;;
5559;SDS011;2803;47.916;8.074;2022-08-19T03:29:13;32.30;;;21.70;;
5559;SDS011;2803;47.916;8.074;2022-08-19T03:31:41;38.80;;;26.53;;
5559;SDS011;2803;47.916;8.074;2022-08-19T03:34:09;46.73;;;25.70;;
5559;SDS011;2803;47.916;8.074;2022-08-19T03:36:37;37.63;;;25.37;;
5559;SDS011;2803;47.916;8.074;2022-08-19T03:39:04;38.90;;;25.87;;
5559;SDS011;2803;47.916;8.074;2022-08-19T03:41:35;40.07;;;26.60;;
5559;SDS011;2803;47.916;8.074;2022-08-19T03:44:04;38.50;;;25.70;;
5559;SDS011;2803;47.916;8.074;2022-08-19T03:46:33;41.77;;;27.30;;
5559;SDS011;2803;47.916;8.074;2022-08-19T03:49:01;36.27;;;24.60;;
5559;SDS011;2803;47.916;8.074;2022-08-19T03:51:33;36.17;;;24.77;;
5559;SDS011;2803;47.916;8.074;2022-08-19T03:54:03;42.33;;;27.30;;
5559;SDS011;2803;47.916;8.074;2022-08-19T03:56:30;37.03;;;24.20;;
5559;SDS011;2803;47.916;8.074;2022-08-19T03:59:00;46.80;;;24.77;;
5559;SDS011;2803;47.916;8.074;2022-08-19T04:01:28;36.90;;;23.57;;
5559;SDS011;2803;47.916;8.074;2022-08-19T04:03:55;41.43;;;24.10;;
5559;SDS011;2803;47.916;8.074;2022-08-19T04:06:23;38.00;;;24.90;;
5559;SDS011;2803;47.916;8.074;2022-08-19T04:08:51;35.80;;;23.50;;
5559;SDS011;2803;47.916;8.074;2022-08-19T04:11:20;39.37;;;26.07;;
5559;SDS011;2803;47.916;8.074;2022-08-19T04:13:52;41.67;;;26.47;;
5559;SDS011;2803;47.916;8.074;2022-08-19T04:16:22;41.70;;;27.03;;
5559;SDS011;2803;47.916;8.074;2022-08-19T04:18:50;37.83;;;26.60;;
5559;SDS011;2803;47.916;8.074;2022-08-19T04:21:17;45.70;;;27.23;;
5559;SDS011;2803;47.916;8.074;2022-08-19T04:23:45;40.70;;;27.00;;
5559;SDS011;2803;47.916;8.074;2022-08-19T04:26:13;41.57;;;27.70;;
5559;SDS011;2803;47.916;8.074;2022-08-19T04:28:41;49.50;;;27.90;;
5559;SDS011;2803;47.916;8.074;2022-08-19T04:31:12;40.00;;;26.53;;
5559;SDS011;2803;47.916;8.074;2022-08-19T04:33:40;41.63;;;26.93;;
5559;SDS011;2803;47.916;8.074;2022-08-19T04:36:07;43.97;;;29.10;;
5559;SDS011;2803;47.916;8.074;2022-08-19T04:38:41;41.63;;;28.20;;
5559;SDS011;2803;47.916;8.074;2022-08-19T04:41:07;40.93;;;28.20;;
5559;SDS011;2803;47.916;8.074;2022-08-19T04:43:48;50.60;;;29.07;;
5559;SDS011;2803;47.916;8.074;2022-08-19T04:46:15;43.93;;;28.00;;
5559;SDS011;2803;47.916;8.074;2022-08-19T04:48:46;46.93;;;29.33;;
5559;SDS011;2803;47.916;8.074;2022-08-19T04:51:12;45.87;;;28.30;;
5559;SDS011;2803;47.916;8.074;2022-08-19T04:53:40;44.90;;;29.03;;
5559;SDS011;2803;47.916;8.074;2022-08-19T04:56:09;46.40;;;28.07;;
5559;SDS011;2803;47.916;8.074;2022-08-19T04:58:38;45.87;;;28.90;;
5559;SDS011;2803;47.916;8.074;2022-08-19T05:01:07;49.63;;;29.10;;
5559;SDS011;2803;47.916;8.074;2022-08-19T05:03:35;49.97;;;31.03;;
5559;SDS011;2803;47.916;8.074;2022-08-19T05:06:05;47.47;;;29.20;;
5559;SDS011;2803;47.916;8.074;2022-08-19T05:08:33;46.33;;;29.10;;
5559;SDS011;2803;47.916;8.074;2022-08-19T05:11:06;47.30;;;28.80;;
5559;SDS011;2803;47.916;8.074;2022-08-19T05:13:36;50.13;;;30.50;;
5559;SDS011;2803;47.916;8.074;2022-08-19T05:16:03;44.60;;;28.43;;
5559;SDS011;2803;47.916;8.074;2022-08-19T05:18:30;51.90;;;31.33;;
5559;SDS011;2803;47.916;8.074;2022-08-19T05:21:13;44.43;;;28.53;;
5559;SDS011;2803;47.916;8.074;2022-08-19T05:23:54;48.77;;;28.67;;
5559;SDS011;2803;47.916;8.074;2022-08-19T05:26:22;48.70;;;29.40;;
5559;SDS011;2803;47.916;8.074;2022-08-19T05:28:50;54.57;;;30.40;;
5559;SDS011;2803;47.916;8.074;2022-08-19T05:31:17;49.60;;;29.23;;
5559;SDS011;2803;47.916;8.074;2022-08-19T05:33:44;53.83;;;30.60;;
5559;SDS011;2803;47.916;8.074;2022-08-19T05:36:12;42.37;;;27.77;;
5559;SDS011;2803;47.916;8.074;2022-08-19T05:38:39;47.90;;;30.30;;
5559;SDS011;2803;47.916;8.074;2022-08-19T05:41:07;47.83;;;28.67;;
5559;SDS011;2803;47.916;8.074;2022-08-19T05:43:34;40.87;;;27.90;;
5559;SDS011;2803;47.916;8.074;2022-08-19T05:46:01;44.43;;;27.60;;
5559;SDS011;2803;47.916;8.074;2022-08-19T05:48:27;51.13;;;28.60;;
5559;SDS011;2803;47.916;8.074;2022-08-19T05:50:55;46.13;;;26.33;;
5559;SDS011;2803;47.916;8.074;2022-08-19T05:53:23;46.50;;;27.47;;
5559;SDS011;2803;47.916;8.074;2022-08-19T05:55:49;55.23;;;28.20;;
5559;SDS011;2803;47.916;8.074;2022-08-19T05:58:16;41.53;;;26.73;;
5559;SDS011;2803;47.916;8.074;2022-08-19T06:00:43;49.90;;;30.57;;
5559;SDS011;2803;47.916;8.074;2022-08-19T06:03:10;44.13;;;26.70;;
5559;SDS011;2803;47.916;8.074;2022-08-19T06:05:37;42.93;;;27.87;;
5559;SDS011;2803;47.916;8.074;2022-08-19T06:08:03;44.40;;;28.40;;
5559;SDS011;2803;47.916;8.074;2022-08-19T06:10:33;48.00;;;29.20;;
5559;SDS011;2803;47.916;8.074;2022-08-19T06:13:01;47.90;;;28.40;;
5559;SDS011;2803;47.916;8.074;2022-08-19T06:15:29;55.13;;;26.90;;
5559;SDS011;2803;47.916;8.074;2022-08-19T06:17:56;45.47;;;27.10;;
5559;SDS011;2803;47.916;8.074;2022-08-19T06:20:22;43.97;;;26.07;;
5559;SDS011;2803;47.916;8.074;2022-08-19T06:22:51;50.40;;;29.43;;
5559;SDS011;2803;47.916;8.074;2022-08-19T06:25:17;45.97;;;28.03;;
5559;SDS011;2803;47.916;8.074;2022-08-19T06:27:45;56.27;;;30.60;;
5559;SDS011;2803;47.916;8.074;2022-08-19T06:30:12;57.10;;;29.63;;
5559;SDS011;2803;47.916;8.074;2022-08-19T06:32:39;43.30;;;27.43;;
5559;SDS011;2803;47.916;8.074;2022-08-19T06:35:06;52.23;;;30.20;;
5559;SDS011;2803;47.916;8.074;2022-08-19T06:37:33;42.97;;;25.80;;
5559;SDS011;2803;47.916;8.074;2022-08-19T06:40:00;50.00;;;31.77;;
5559;SDS011;2803;47.916;8.074;2022-08-19T06:42:27;48.23;;;30.37;;
5559;SDS011;2803;47.916;8.074;2022-08-19T06:44:55;57.83;;;32.83;;
5559;SDS011;2803;47.916;8.074;2022-08-19T06:47:23;66.03;;;37.07;;
5559;SDS011;2803;47.916;8.074;2022-08-19T06:49:52;58.20;;;33.23;;
5559;SDS011;2803;47.916;8.074;2022-08-19T06:52:20;62.13;;;35.90;;
5559;SDS011;2803;47.916;8.074;2022-08-19T06:54:48;58.70;;;35.60;;
5559;SDS011;2803;47.916;8.074;2022-08-19T06:57:15;61.23;;;35.47;;
5559;SDS011;2803;47.916;8.074;2022-08-19T06:59:42;62.60;;;37.13;;
5559;SDS011;2803;47.916;8.074;2022-08-19T07:02:10;73.10;;;38.77;;
5559;SDS011;2803;47.916;8.074;2022-08-19T07:04:36;68.60;;;39.80;;
5559;SDS011;2803;47.916;8.074;2022-08-19T07:07:05;74.07;;;41.63;;
5559;SDS011;2803;47.916;8.074;2022-08-19T07:09:35;73.07;;;38.23;;
5559;SDS011;2803;47.916;8.074;2022-08-19T07:12:04;68.93;;;40.63;;
5559;SDS011;2803;47.916;8.074;2022-08-19T07:14:32;71.97;;;42.23;;
5559;SDS011;2803;47.916;8.074;2022-08-19T07:17:02;75.50;;;41.27;;
5559;SDS011;2803;47.916;8.074;2022-08-19T07:19:32;71.20;;;40.47;;
5559;SDS011;2803;47.916;8.074;2022-08-19T07:22:00;76.43;;;42.37;;
5559;SDS011;2803;47.916;8.074;2022-08-19T07:24:28;69.60;;;42.13;;
5559;SDS011;2803;47.916;8.074;2022-08-19T07:26:56;71.67;;;41.90;;
5559;SDS011;2803;47.916;8.074;2022-08-19T07:29:27;76.80;;;44.53;;
5559;SDS011;2803;47.916;8.074;2022-08-19T07:31:56;76.73;;;43.43;;
5559;SDS011;2803;47.916;8.074;2022-08-19T07:34:23;86.60;;;47.23;;
5559;SDS011;2803;47.916;8.074;2022-08-19T07:36:52;75.47;;;44.20;;
5559;SDS011;2803;47.916;8.074;2022-08-19T07:39:21;85.97;;;45.17;;
5559;SDS011;2803;47.916;8.074;2022-08-19T07:41:49;84.97;;;46.50;;
5559;SDS011;2803;47.916;8.074;2022-08-19T07:44:16;87.30;;;47.87;;
5559;SDS011;2803;47.916;8.074;2022-08-19T07:46:47;87.37;;;47.87;;
5559;SDS011;2803;47.916;8.074;2022-08-19T07:49:17;76.83;;;45.57;;
5559;SDS011;2803;47.916;8.074;2022-08-19T07:51:45;86.90;;;47.17;;
5559;SDS011;2803;47.916;8.074;2022-08-19T07:54:14;85.73;;;47.77;;
5559;SDS011;2803;47.916;8.074;2022-08-19T07:56:41;77.90;;;45.13;;
5559;SDS011;2803;47.916;8.074;2022-08-19T07:59:08;74.90;;;43.03;;
5559;SDS011;2803;47.916;8.074;2022-08-19T08:01:35;83.07;;;44.63;;
5559;SDS011;2803;47.916;8.074;2022-08-19T08:04:02;76.03;;;44.03;;
5559;SDS011;2803;47.916;8.074;2022-08-19T08:06:43;77.00;;;41.00;;
5559;SDS011;2803;47.916;8.074;2022-08-19T08:09:26;76.47;;;42.20;;
5559;SDS011;2803;47.916;8.074;2022-08-19T08:11:56;74.83;;;40.60;;
5559;SDS011;2803;47.916;8.074;2022-08-19T08:14:26;74.23;;;41.30;;
5559;SDS011;2803;47.916;8.074;2022-08-19T08:16:54;65.60;;;40.83;;
5559;SDS011;2803;47.916;8.074;2022-08-19T08:19:23;71.83;;;42.00;;
5559;SDS011;2803;47.916;8.074;2022-08-19T08:21:53;70.73;;;39.17;;
5559;SDS011;2803;47.916;8.074;2022-08-19T08:24:21;60.07;;;36.97;;
5559;SDS011;2803;47.916;8.074;2022-08-19T08:26:50;71.70;;;42.37;;
5559;SDS011;2803;47.916;8.074;2022-08-19T08:29:16;62.83;;;41.27;;
5559;SDS011;2803;47.916;8.074;2022-08-19T08:31:44;67.97;;;39.00;;
5559;SDS011;2803;47.916;8.074;2022-08-19T08:34:12;67.23;;;40.67;;
5559;SDS011;2803;47.916;8.074;2022-08-19T08:36:41;61.73;;;36.07;;
5559;SDS011;2803;47.916;8.074;2022-08-19T08:39:10;70.47;;;37.10;;
5559;SDS011;2803;47.916;8.074;2022-08-19T08:41:40;66.23;;;38.53;;
5559;SDS011;2803;47.916;8.074;2022-08-19T08:44:15;67.87;;;40.60;;
5559;SDS011;2803;47.916;8.074;2022-08-19T08:46:46;60.93;;;38.23;;
5559;SDS011;2803;47.916;8.074;2022-08-19T08:49:18;72.37;;;42.40;;
5559;SDS011;2803;47.916;8.074;2022-08-19T08:51:52;66.27;;;38.20;;
5559;SDS011;2803;47.916;8.074;2022-08-19T08:54:30;65.23;;;37.33;;
5559;SDS011;2803;47.916;8.074;2022-08-19T08:57:00;73.33;;;43.03;;
5559;SDS011;2803;47.916;8.074;2022-08-19T08:59:30;80.20;;;44.07;;
5559;SDS011;2803;47.916;8.074;2022-08-19T09:02:00;73.23;;;42.67;;
5559;SDS011;2803;47.916;8.074;2022-08-19T09:04:27;74.90;;;45.40;;
5559;SDS011;2803;47.916;8.074;2022-08-19T09:06:55;70.87;;;43.47;;
5559;SDS011;2803;47.916;8.074;2022-08-19T09:09:38;66.50;;;42.10;;
5559;SDS011;2803;47.916;8.074;2022-08-19T09:12:09;67.83;;;40.80;;
5559;SDS011;2803;47.916;8.074;2022-08-19T09:14:45;69.93;;;40.87;;
5559;SDS011;2803;47.916;8.074;2022-08-19T09:17:14;70.60;;;40.83;;
5559;SDS011;2803;47.916;8.074;2022-08-19T09:22:23;68.47;;;42.80;;
5559;SDS011;2803;47.916;8.074;2022-08-19T09:24:52;73.53;;;43.40;;
5559;SDS011;2803;47.916;8.074;2022-08-19T09:27:19;70.70;;;41.43;;
5559;SDS011;2803;47.916;8.074;2022-08-19T09:29:50;61.93;;;38.30;;
5559;SDS011;2803;47.916;8.074;2022-08-19T09:32:16;69.10;;;40.87;;
5559;SDS011;2803;47.916;8.074;2022-08-19T09:34:43;59.33;;;37.50;;
5559;SDS011;2803;47.916;8.074;2022-08-19T09:37:10;65.50;;;38.50;;
5559;SDS011;2803;47.916;8.074;2022-08-19T09:39:37;59.73;;;37.77;;
5559;SDS011;2803;47.916;8.074;2022-08-19T09:42:05;55.53;;;35.23;;
5559;SDS011;2803;47.916;8.074;2022-08-19T09:44:36;55.40;;;36.27;;
5559;SDS011;2803;47.916;8.074;2022-08-19T09:47:04;54.70;;;36.40;;
5559;SDS011;2803;47.916;8.074;2022-08-19T09:49:31;58.33;;;35.47;;
5559;SDS011;2803;47.916;8.074;2022-08-19T09:51:58;57.07;;;35.67;;
5559;SDS011;2803;47.916;8.074;2022-08-19T09:54:26;53.47;;;33.73;;
5559;SDS011;2803;47.916;8.074;2022-08-19T09:56:53;51.93;;;34.57;;
5559;SDS011;2803;47.916;8.074;2022-08-19T09:59:21;62.83;;;39.30;;
5559;SDS011;2803;47.916;8.074;2022-08-19T10:01:47;54.33;;;35.67;;
5559;SDS011;2803;47.916;8.074;2022-08-19T10:04:15;63.37;;;38.50;;
5559;SDS011;2803;47.916;8.074;2022-08-19T10:06:42;59.23;;;36.43;;
5559;SDS011;2803;47.916;8.074;2022-08-19T10:09:09;51.80;;;33.97;;
5559;SDS011;2803;47.916;8.074;2022-08-19T10:11:38;57.53;;;33.40;;
5559;SDS011;2803;47.916;8.074;2022-08-19T10:14:06;64.57;;;39.00;;
5559;SDS011;2803;47.916;8.074;2022-08-19T10:16:33;60.37;;;39.10;;
5559;SDS011;2803;47.916;8.074;2022-08-19T10:19:02;86.27;;;51.37;;
5559;SDS011;2803;47.916;8.074;2022-08-19T10:21:31;69.70;;;45.80;;
5559;SDS011;2803;47.916;8.074;2022-08-19T10:24:00;62.70;;;42.80;;
5559;SDS011;2803;47.916;8.074;2022-08-19T10:26:31;72.40;;;43.17;;
5559;SDS011;2803;47.916;8.074;2022-08-19T10:28:59;63.13;;;39.10;;
5559;SDS011;2803;47.916;8.074;2022-08-19T10:31:27;60.00;;;37.53;;
5559;SDS011;2803;47.916;8.074;2022-08-19T10:33:55;57.70;;;36.07;;
5559;SDS011;2803;47.916;8.074;2022-08-19T10:36:23;56.20;;;34.87;;
5559;SDS011;2803;47.916;8.074;2022-08-19T10:38:53;60.27;;;33.93;;
5559;SDS011;2803;47.916;8.074;2022-08-19T10:41:24;52.97;;;34.73;;
5559;SDS011;2803;47.916;8.074;2022-08-19T10:43:52;51.07;;;34.13;;
5559;SDS011;2803;47.916;8.074;2022-08-19T10:46:21;51.83;;;34.43;;
5559;SDS011;2803;47.916;8.074;2022-08-19T10:48:49;57.33;;;34.77;;
5559;SDS011;2803;47.916;8.074;2022-08-19T10:51:16;57.50;;;35.30;;
5559;SDS011;2803;47.916;8.074;2022-08-19T10:53:59;55.30;;;35.10;;
5559;SDS011;2803;47.916;8.074;2022-08-19T10:56:26;51.30;;;34.30;;
5559;SDS011;2803;47.916;8.074;2022-08-19T10:59:07;48.73;;;32.30;;
5559;SDS011;2803;47.916;8.074;2022-08-19T11:01:34;47.87;;;34.00;;
5559;SDS011;2803;47.916;8.074;2022-08-19T11:04:02;57.13;;;35.17;;
5559;SDS011;2803;47.916;8.074;2022-08-19T11:06:33;54.13;;;35.70;;
5559;SDS011;2803;47.916;8.074;2022-08-19T11:09:02;59.90;;;36.00;;
5559;SDS011;2803;47.916;8.074;2022-08-19T11:11:29;47.97;;;33.60;;
5559;SDS011;2803;47.916;8.074;2022-08-19T11:13:57;53.20;;;36.37;;
5559;SDS011;2803;47.916;8.074;2022-08-19T11:16:25;59.57;;;37.43;;
5559;SDS011;2803;47.916;8.074;2022-08-19T11:18:56;56.10;;;36.90;;
5559;SDS011;2803;47.916;8.074;2022-08-19T11:21:25;54.10;;;36.27;;
5559;SDS011;2803;47.916;8.074;2022-08-19T11:23:57;54.40;;;37.60;;
5559;SDS011;2803;47.916;8.074;2022-08-19T11:26:27;56.77;;;37.37;;
5559;SDS011;2803;47.916;8.074;2022-08-19T11:28:54;60.47;;;37.07;;
5559;SDS011;2803;47.916;8.074;2022-08-19T11:31:22;54.63;;;35.73;;
5559;SDS011;2803;47.916;8.074;2022-08-19T11:33:49;53.33;;;34.50;;
5559;SDS011;2803;47.916;8.074;2022-08-19T11:36:17;52.27;;;34.47;;
5559;SDS011;2803;47.916;8.074;2022-08-19T11:38:45;57.63;;;34.20;;
5559;SDS011;2803;47.916;8.074;2022-08-19T11:41:13;54.27;;;35.10;;
5559;SDS011;2803;47.916;8.074;2022-08-19T11:43:43;47.17;;;32.47;;
5559;SDS011;2803;47.916;8.074;2022-08-19T11:46:10;47.53;;;33.07;;
5559;SDS011;2803;47.916;8.074;2022-08-19T11:48:39;54.77;;;33.00;;
5559;SDS011;2803;47.916;8.074;2022-08-19T11:51:07;49.07;;;33.80;;
5559;SDS011;2803;47.916;8.074;2022-08-19T11:53:35;58.93;;;38.23;;
5559;SDS011;2803;47.916;8.074;2022-08-19T11:56:03;63.13;;;36.47;;
5559;SDS011;2803;47.916;8.074;2022-08-19T11:58:31;50.93;;;34.40;;
5559;SDS011;2803;47.916;8.074;2022-08-19T12:01:00;53.93;;;35.70;;
5559;SDS011;2803;47.916;8.074;2022-08-19T12:03:27;55.87;;;38.03;;
5559;SDS011;2803;47.916;8.074;2022-08-19T12:05:54;60.67;;;38.53;;
5559;SDS011;2803;47.916;8.074;2022-08-19T12:08:20;57.30;;;37.47;;
5559;SDS011;2803;47.916;8.074;2022-08-19T12:10:47;52.83;;;36.70;;
5559;SDS011;2803;47.916;8.074;2022-08-19T12:13:14;60.50;;;38.30;;
5559;SDS011;2803;47.916;8.074;2022-08-19T12:15:44;57.30;;;37.17;;
5559;SDS011;2803;47.916;8.074;2022-08-19T12:18:13;58.93;;;39.37;;
5559;SDS011;2803;47.916;8.074;2022-08-19T12:20:41;50.50;;;36.10;;
5559;SDS011;2803;47.916;8.074;2022-08-19T12:23:08;58.90;;;38.70;;
5559;SDS011;2803;47.916;8.074;2022-08-19T12:25:36;60.93;;;37.30;;
5559;SDS011;2803;47.916;8.074;2022-08-19T12:28:03;54.80;;;36.10;;
5559;SDS011;2803;47.916;8.074;2022-08-19T12:30:30;54.53;;;35.83;;
5559;SDS011;2803;47.916;8.074;2022-08-19T12:32:56;51.47;;;33.70;;
5559;SDS011;2803;47.916;8.074;2022-08-19T12:35:25;52.77;;;32.60;;
5559;SDS011;2803;47.916;8.074;2022-08-19T12:37:52;57.93;;;33.63;;
5559;SDS011;2803;47.916;8.074;2022-08-19T12:40:18;44.03;;;30.87;;
5559;SDS011;2803;47.916;8.074;2022-08-19T12:42:46;43.60;;;28.50;;
5559;SDS011;2803;47.916;8.074;2022-08-19T12:45:15;43.83;;;31.50;;
5559;SDS011;2803;47.916;8.074;2022-08-19T12:47:42;50.43;;;33.23;;
5559;SDS011;2803;47.916;8.074;2022-08-19T12:50:09;53.00;;;33.60;;
5559;SDS011;2803;47.916;8.074;2022-08-19T12:52:36;42.97;;;29.43;;
5559;SDS011;2803;47.916;8.074;2022-08-19T12:55:04;44.70;;;30.23;;
5559;SDS011;2803;47.916;8.074;2022-08-19T12:57:33;43.07;;;29.30;;
5559;SDS011;2803;47.916;8.074;2022-08-19T13:00:02;36.50;;;26.27;;
5559;SDS011;2803;47.916;8.074;2022-08-19T13:02:33;36.13;;;26.20;;
5559;SDS011;2803;47.916;8.074;2022-08-19T13:05:01;34.47;;;23.80;;
5559;SDS011;2803;47.916;8.074;2022-08-19T13:07:28;39.00;;;27.40;;
5559;SDS011;2803;47.916;8.074;2022-08-19T13:09:56;36.97;;;26.17;;
5559;SDS011;2803;47.916;8.074;2022-08-19T13:12:23;38.63;;;24.70;;
5559;SDS011;2803;47.916;8.074;2022-08-19T13:14:51;35.23;;;23.90;;
5559;SDS011;2803;47.916;8.074;2022-08-19T13:17:18;37.67;;;25.17;;
5559;SDS011;2803;47.916;8.074;2022-08-19T13:19:45;38.50;;;25.60;;
5559;SDS011;2803;47.916;8.074;2022-08-19T13:22:11;43.00;;;25.20;;
5559;SDS011;2803;47.916;8.074;2022-08-19T13:24:38;42.73;;;26.63;;
5559;SDS011;2803;47.916;8.074;2022-08-19T13:27:06;40.43;;;27.13;;
5559;SDS011;2803;47.916;8.074;2022-08-19T13:29:33;38.77;;;27.00;;
5559;SDS011;2803;47.916;8.074;2022-08-19T13:32:13;32.83;;;23.90;;
5559;SDS011;2803;47.916;8.074;2022-08-19T13:34:54;35.23;;;24.77;;
5559;SDS011;2803;47.916;8.074;2022-08-19T13:37:21;30.83;;;23.33;;
5559;SDS011;2803;47.916;8.074;2022-08-19T13:40:06;32.00;;;21.60;;
5559;SDS011;2803;47.916;8.074;2022-08-19T13:42:38;28.83;;;21.10;;
5559;SDS011;2803;47.916;8.074;2022-08-19T13:45:05;25.83;;;19.87;;
5559;SDS011;2803;47.916;8.074;2022-08-19T13:47:32;26.90;;;19.93;;
5559;SDS011;2803;47.916;8.074;2022-08-19T13:50:00;25.70;;;19.87;;
5559;SDS011;2803;47.916;8.074;2022-08-19T13:52:28;24.30;;;17.87;;
5559;SDS011;2803;47.916;8.074;2022-08-19T13:54:55;26.03;;;17.47;;
5559;SDS011;2803;47.916;8.074;2022-08-19T13:57:22;27.03;;;20.80;;
5559;SDS011;2803;47.916;8.074;2022-08-19T13:59:50;25.77;;;18.77;;
5559;SDS011;2803;47.916;8.074;2022-08-19T14:02:16;25.50;;;19.90;;
5559;SDS011;2803;47.916;8.074;2022-08-19T14:04:43;30.13;;;19.20;;
5559;SDS011;2803;47.916;8.074;2022-08-19T14:07:10;28.93;;;18.10;;
5559;SDS011;2803;47.916;8.074;2022-08-19T14:09:37;24.13;;;18.87;;
5559;SDS011;2803;47.916;8.074;2022-08-19T14:12:03;22.93;;;16.57;;
5559;SDS011;2803;47.916;8.074;2022-08-19T14:14:30;19.60;;;16.20;;
5559;SDS011;2803;47.916;8.074;2022-08-19T14:16:58;22.00;;;17.90;;
5559;SDS011;2803;47.916;8.074;2022-08-19T14:19:25;21.30;;;16.07;;
5559;SDS011;2803;47.916;8.074;2022-08-19T14:21:51;21.23;;;17.20;;
5559;SDS011;2803;47.916;8.074;2022-08-19T14:24:18;19.50;;;16.30;;
5559;SDS011;2803;47.916;8.074;2022-08-19T14:26:45;19.77;;;15.63;;
5559;SDS011;2803;47.916;8.074;2022-08-19T14:29:11;21.90;;;18.13;;
5559;SDS011;2803;47.916;8.074;2022-08-19T14:31:38;19.20;;;15.00;;
5559;SDS011;2803;47.916;8.074;2022-08-19T14:34:08;24.50;;;15.53;;
5559;SDS011;2803;47.916;8.074;2022-08-19T14:36:37;22.60;;;16.10;;
5559;SDS011;2803;47.916;8.074;2022-08-19T14:39:04;23.83;;;15.40;;
5559;SDS011;2803;47.916;8.074;2022-08-19T14:41:32;20.40;;;15.83;;
5559;SDS011;2803;47.916;8.074;2022-08-19T14:43:58;20.40;;;15.00;;
5559;SDS011;2803;47.916;8.074;2022-08-19T14:46:26;19.03;;;15.60;;
5559;SDS011;2803;47.916;8.074;2022-08-19T14:48:54;16.77;;;12.97;;
5559;SDS011;2803;47.916;8.074;2022-08-19T14:51:23;19.77;;;16.23;;
5559;SDS011;2803;47.916;8.074;2022-08-19T14:53:51;19.20;;;15.07;;
5559;SDS011;2803;47.916;8.074;2022-08-19T14:56:18;20.73;;;14.80;;
5559;SDS011;2803;47.916;8.074;2022-08-19T14:58:47;16.63;;;14.07;;